Time;durP1;ratioP1;P1;durP2;ratioP2;P2;SDS_P1;SDS_P2;PMS_P1;PMS_P2;Temp;Humidity;BMP_temperature;BMP_pressure;BME280_temperature;BME280_humidity;BME280_pressure;Samples;Min_cycle;Max_cycle;Signal;HPM_P1;HPM_P2
2023/10/22 00:00:48;;;;;;;0.25;0.25;;;;;;;;;;4980409;28;20577;-71
2023/10/22 00:03:14;;;;;;;0.88;0.20;;;;;;;;;;4979509;28;20077;-71
2023/10/22 00:05:40;;;;;;;0.20;0.20;;;;;;;;;;4980150;28;20167;-70
2023/10/22 00:08:06;;;;;;;0.17;0.17;;;;;;;;;;4980501;28;20046;-70
2023/10/22 00:10:31;;;;;;;0.20;0.20;;;;;;;;;;4980118;28;20418;-71
2023/10/22 00:12:56;;;;;;;1.90;0.28;;;;;;;;;;4979564;28;20077;-71
2023/10/22 00:15:23;;;;;;;0.20;0.20;;;;;;;;;;4980061;28;20100;-70
2023/10/22 00:17:49;;;;;;;0.20;0.20;;;;;;;;;;4977998;28;20069;-70
2023/10/22 00:20:14;;;;;;;0.20;0.20;;;;;;;;;;4980039;28;20137;-71
2023/10/22 00:22:40;;;;;;;0.45;0.32;;;;;;;;;;4980283;28;20046;-71
2023/10/22 00:25:06;;;;;;;0.38;0.38;;;;;;;;;;4978532;28;20050;-70
2023/10/22 00:27:35;;;;;;;0.90;0.73;;;;;;;;;;4978976;28;20050;-70
2023/10/22 00:30:00;;;;;;;0.35;0.35;;;;;;;;;;4979891;28;20054;-70
2023/10/22 00:32:28;;;;;;;0.57;0.38;;;;;;;;;;4978405;28;20507;-70
2023/10/22 00:34:54;;;;;;;0.30;0.30;;;;;;;;;;4978108;28;20495;-71
2023/10/22 00:37:20;;;;;;;1.27;0.55;;;;;;;;;;4978261;28;20180;-70
2023/10/22 00:39:46;;;;;;;1.02;0.45;;;;;;;;;;4978023;28;20140;-70
2023/10/22 00:42:12;;;;;;;0.95;0.40;;;;;;;;;;4994583;28;20054;-70
2023/10/22 00:44:38;;;;;;;0.50;0.50;;;;;;;;;;4978470;28;20050;-70
2023/10/22 00:47:05;;;;;;;0.28;0.28;;;;;;;;;;4977858;28;20042;-70
2023/10/22 00:49:31;;;;;;;0.25;0.25;;;;;;;;;;4977356;28;20065;-70
2023/10/22 00:51:56;;;;;;;2.63;0.35;;;;;;;;;;4962235;28;20054;-70
2023/10/22 00:54:24;;;;;;;0.55;0.30;;;;;;;;;;4979240;28;20116;-70
2023/10/22 00:56:51;;;;;;;0.30;0.30;;;;;;;;;;4962456;28;20125;-70
2023/10/22 00:59:17;;;;;;;0.30;0.30;;;;;;;;;;4977695;28;20602;-71
2023/10/22 01:01:43;;;;;;;0.30;0.30;;;;;;;;;;4978105;28;20125;-71
2023/10/22 01:04:09;;;;;;;0.50;0.50;;;;;;;;;;4994413;28;20141;-70
2023/10/22 01:06:38;;;;;;;1.30;0.35;;;;;;;;;;4961535;28;20133;-70
2023/10/22 01:09:03;;;;;;;0.28;0.28;;;;;;;;;;4993687;28;20817;-72
2023/10/22 01:11:29;;;;;;;0.85;0.30;;;;;;;;;;4977172;28;20518;-70
2023/10/22 01:13:55;;;;;;;0.38;0.38;;;;;;;;;;4978165;28;20074;-70
2023/10/22 01:16:21;;;;;;;0.60;0.30;;;;;;;;;;4979108;28;20053;-71
2023/10/22 01:18:46;;;;;;;0.35;0.35;;;;;;;;;;4979266;28;20036;-70
2023/10/22 01:21:12;;;;;;;0.30;0.30;;;;;;;;;;4978858;28;20076;-70
2023/10/22 01:23:38;;;;;;;5.68;0.77;;;;;;;;;;4977564;28;20515;-70
2023/10/22 01:26:06;;;;;;;0.30;0.30;;;;;;;;;;4977232;28;20038;-70
2023/10/22 01:28:36;;;;;;;0.40;0.35;;;;;;;;;;4959562;28;20054;-70
2023/10/22 01:31:04;;;;;;;0.85;0.30;;;;;;;;;;4975719;28;20570;-70
2023/10/22 01:33:30;;;;;;;0.30;0.30;;;;;;;;;;4977459;28;20050;-71
2023/10/22 01:35:56;;;;;;;2.42;0.45;;;;;;;;;;4976521;28;20050;-71
2023/10/22 01:38:22;;;;;;;0.45;0.30;;;;;;;;;;4977405;28;20053;-70
2023/10/22 01:40:47;;;;;;;2.50;0.50;;;;;;;;;;4993986;28;20046;-71
2023/10/22 01:43:13;;;;;;;0.35;0.35;;;;;;;;;;4977075;28;20050;-71
2023/10/22 01:45:39;;;;;;;0.40;0.40;;;;;;;;;;4977152;28;20038;-70
2023/10/22 01:48:05;;;;;;;0.20;0.20;;;;;;;;;;4976830;28;20050;-71
2023/10/22 01:50:31;;;;;;;0.30;0.30;;;;;;;;;;4977199;28;20054;-71
2023/10/22 01:52:56;;;;;;;0.40;0.40;;;;;;;;;;4977015;28;20061;-72
2023/10/22 01:55:22;;;;;;;0.50;0.50;;;;;;;;;;4961213;28;20057;-71
2023/10/22 01:57:47;;;;;;;0.40;0.40;;;;;;;;;;4977096;28;20046;-71
2023/10/22 02:00:13;;;;;;;0.25;0.25;;;;;;;;;;4977411;28;20050;-71
2023/10/22 02:02:42;;;;;;;0.30;0.30;;;;;;;;;;4977699;28;20081;-71
2023/10/22 02:05:07;;;;;;;0.45;0.40;;;;;;;;;;4982223;28;20184;-70
2023/10/22 02:07:37;;;;;;;0.32;0.32;;;;;;;;;;4997517;28;20057;-70
2023/10/22 02:10:03;;;;;;;0.60;0.40;;;;;;;;;;4982035;28;20039;-72
2023/10/22 02:12:29;;;;;;;0.40;0.40;;;;;;;;;;4980925;28;20046;-72
2023/10/22 02:14:54;;;;;;;2.42;0.40;;;;;;;;;;4965306;28;20054;-70
2023/10/22 02:17:19;;;;;;;0.40;0.40;;;;;;;;;;4981045;28;20137;-70
2023/10/22 02:19:45;;;;;;;0.50;0.40;;;;;;;;;;4980600;28;20050;-71
2023/10/22 02:22:12;;;;;;;0.43;0.40;;;;;;;;;;4980755;28;20050;-70
2023/10/22 02:24:37;;;;;;;0.50;0.50;;;;;;;;;;4980892;28;20046;-70
2023/10/22 02:27:03;;;;;;;0.40;0.40;;;;;;;;;;4980123;28;20089;-70
2023/10/22 02:29:29;;;;;;;0.60;0.60;;;;;;;;;;4980638;28;20054;-70
2023/10/22 02:31:54;;;;;;;1.27;0.30;;;;;;;;;;4980978;28;20841;-70
2023/10/22 02:34:19;;;;;;;0.73;0.60;;;;;;;;;;4982473;28;20054;-70
2023/10/22 02:36:45;;;;;;;0.57;0.45;;;;;;;;;;4981738;28;20134;-70
2023/10/22 02:39:11;;;;;;;0.47;0.40;;;;;;;;;;4980182;28;20105;-70
2023/10/22 02:41:37;;;;;;;0.50;0.50;;;;;;;;;;4980904;28;20134;-70
2023/10/22 02:44:04;;;;;;;0.60;0.55;;;;;;;;;;4982105;28;20422;-70
2023/10/22 02:46:30;;;;;;;0.60;0.60;;;;;;;;;;4980059;28;20050;-70
2023/10/22 02:48:56;;;;;;;0.40;0.40;;;;;;;;;;4979578;28;20053;-70
2023/10/22 02:51:22;;;;;;;1.00;0.70;;;;;;;;;;4981386;28;20054;-70
2023/10/22 02:53:48;;;;;;;0.47;0.47;;;;;;;;;;4979689;28;20046;-70
2023/10/22 02:56:13;;;;;;;1.15;0.47;;;;;;;;;;4982003;28;20042;-69
2023/10/22 02:58:40;;;;;;;0.60;0.60;;;;;;;;;;4981542;28;20427;-69
2023/10/22 03:01:07;;;;;;;1.13;0.60;;;;;;;;;;4979175;28;20046;-69
2023/10/22 03:03:38;;;;;;;0.50;0.50;;;;;;;;;;4979377;28;20526;-69
2023/10/22 03:06:09;;;;;;;4.60;0.60;;;;;;;;;;4980241;28;20499;-69
2023/10/22 03:08:36;;;;;;;1.35;0.82;;;;;;;;;;4979804;28;20244;-69
2023/10/22 03:11:02;;;;;;;2.60;0.70;;;;;;;;;;4980575;28;20557;-70
2023/10/22 03:13:28;;;;;;;0.47;0.47;;;;;;;;;;4981203;28;20081;-69
2023/10/22 03:15:54;;;;;;;0.55;0.55;;;;;;;;;;4977078;28;20054;-69
2023/10/22 03:18:20;;;;;;;0.77;0.60;;;;;;;;;;4979896;28;20567;-69
2023/10/22 03:20:46;;;;;;;0.50;0.50;;;;;;;;;;4995700;28;20043;-69
2023/10/22 03:23:12;;;;;;;0.50;0.50;;;;;;;;;;4995503;28;20049;-69
2023/10/22 03:25:39;;;;;;;0.60;0.60;;;;;;;;;;4978816;28;20563;-69
2023/10/22 03:28:06;;;;;;;1.45;0.60;;;;;;;;;;4963763;28;20058;-69
2023/10/22 03:30:36;;;;;;;0.60;0.43;;;;;;;;;;4980456;28;20054;-69
2023/10/22 03:33:02;;;;;;;0.50;0.50;;;;;;;;;;4961233;28;20046;-69
2023/10/22 03:35:27;;;;;;;1.00;0.50;;;;;;;;;;4979050;28;20108;-69
2023/10/22 03:37:53;;;;;;;0.63;0.50;;;;;;;;;;4979021;28;20053;-70
2023/10/22 03:40:19;;;;;;;0.60;0.60;;;;;;;;;;4980540;28;20038;-69
2023/10/22 03:42:45;;;;;;;0.40;0.40;;;;;;;;;;4979160;28;20042;-69
2023/10/22 03:45:12;;;;;;;1.60;0.50;;;;;;;;;;4962301;28;20507;-69
2023/10/22 03:47:37;;;;;;;1.17;0.60;;;;;;;;;;4978061;28;20070;-69
2023/10/22 03:50:03;;;;;;;0.60;0.60;;;;;;;;;;4979292;28;20042;-69
2023/10/22 03:52:29;;;;;;;0.82;0.65;;;;;;;;;;4980279;28;20109;-69
2023/10/22 03:54:54;;;;;;;0.60;0.60;;;;;;;;;;4979936;28;20088;-70
2023/10/22 03:57:20;;;;;;;0.70;0.70;;;;;;;;;;4980800;28;20569;-69
2023/10/22 03:59:45;;;;;;;0.68;0.68;;;;;;;;;;4979401;28;20531;-69
2023/10/22 04:02:11;;;;;;;1.38;0.70;;;;;;;;;;4979805;28;20042;-69
2023/10/22 04:04:36;;;;;;;0.90;0.70;;;;;;;;;;4980560;28;20579;-69
2023/10/22 04:07:02;;;;;;;0.70;0.70;;;;;;;;;;4980019;28;20518;-69
2023/10/22 04:09:29;;;;;;;0.50;0.50;;;;;;;;;;4979363;28;20046;-69
2023/10/22 04:11:55;;;;;;;0.52;0.52;;;;;;;;;;4980270;28;20053;-68
2023/10/22 04:14:21;;;;;;;0.50;0.50;;;;;;;;;;4979149;28;20042;-68
2023/10/22 04:16:49;;;;;;;0.60;0.60;;;;;;;;;;4979867;28;20669;-69
2023/10/22 04:19:15;;;;;;;0.68;0.68;;;;;;;;;;4979488;28;20544;-68
2023/10/22 04:21:40;;;;;;;0.73;0.38;;;;;;;;;;4979441;28;20054;-68
2023/10/22 04:24:06;;;;;;;0.75;0.65;;;;;;;;;;4978866;28;20045;-69
2023/10/22 04:26:32;;;;;;;7.53;0.88;;;;;;;;;;4979841;28;20089;-69
2023/10/22 04:28:57;;;;;;;0.50;0.50;;;;;;;;;;4979426;28;20132;-69
2023/10/22 04:31:22;;;;;;;3.47;0.40;;;;;;;;;;4977461;28;20400;-69
2023/10/22 04:33:48;;;;;;;1.25;0.47;;;;;;;;;;4979998;28;20045;-69
2023/10/22 04:36:19;;;;;;;1.08;0.40;;;;;;;;;;4980092;28;20088;-69
2023/10/22 04:38:44;;;;;;;0.50;0.50;;;;;;;;;;4978396;28;20050;-69
2023/10/22 04:41:12;;;;;;;0.50;0.50;;;;;;;;;;4978692;28;20044;-69
2023/10/22 04:43:38;;;;;;;0.45;0.45;;;;;;;;;;4979559;28;20058;-69
2023/10/22 04:46:04;;;;;;;2.13;0.70;;;;;;;;;;4979671;28;20100;-69
2023/10/22 04:48:30;;;;;;;0.40;0.40;;;;;;;;;;4979590;28;20050;-69
2023/10/22 04:50:57;;;;;;;0.98;0.40;;;;;;;;;;4979115;28;20049;-70
2023/10/22 04:53:23;;;;;;;0.50;0.50;;;;;;;;;;4979426;28;20522;-69
2023/10/22 04:55:55;;;;;;;0.45;0.45;;;;;;;;;;4979035;28;20153;-69
2023/10/22 04:58:21;;;;;;;0.82;0.60;;;;;;;;;;4980050;28;20080;-69
2023/10/22 05:00:47;;;;;;;1.15;0.60;;;;;;;;;;4979112;28;20082;-70
2023/10/22 05:03:13;;;;;;;3.20;0.95;;;;;;;;;;4978539;28;20054;-70
2023/10/22 05:05:38;;;;;;;0.60;0.60;;;;;;;;;;4979188;28;20113;-71
2023/10/22 05:08:05;;;;;;;1.48;0.60;;;;;;;;;;4979780;28;20970;-70
2023/10/22 05:10:35;;;;;;;0.50;0.50;;;;;;;;;;4978369;28;20049;-69
2023/10/22 05:13:01;;;;;;;0.50;0.50;;;;;;;;;;4976965;28;20058;-69
2023/10/22 05:15:26;;;;;;;0.55;0.55;;;;;;;;;;4976645;28;20309;-71
2023/10/22 05:17:52;;;;;;;1.50;0.80;;;;;;;;;;4977721;28;20042;-70
2023/10/22 05:20:18;;;;;;;0.57;0.57;;;;;;;;;;4982575;28;20050;-71
2023/10/22 05:22:44;;;;;;;5.78;0.80;;;;;;;;;;4980336;28;20126;-70
2023/10/22 05:25:10;;;;;;;0.75;0.68;;;;;;;;;;4976282;28;20041;-71
2023/10/22 05:27:35;;;;;;;1.13;0.90;;;;;;;;;;4977446;28;20046;-70
2023/10/22 05:30:01;;;;;;;0.70;0.70;;;;;;;;;;4977420;28;20049;-70
2023/10/22 05:32:26;;;;;;;0.65;0.65;;;;;;;;;;4978510;28;20038;-70
2023/10/22 05:34:51;;;;;;;6.28;1.00;;;;;;;;;;4977651;28;20057;-70
2023/10/22 05:37:18;;;;;;;8.77;1.10;;;;;;;;;;4977520;28;20058;-70
2023/10/22 05:39:43;;;;;;;1.30;1.20;;;;;;;;;;4982027;28;20038;-70
2023/10/22 05:42:09;;;;;;;1.38;1.27;;;;;;;;;;4982407;28;20259;-70
2023/10/22 05:44:38;;;;;;;1.67;1.00;;;;;;;;;;4980502;28;20046;-70
2023/10/22 05:47:04;;;;;;;1.02;0.90;;;;;;;;;;4981853;28;20057;-70
2023/10/22 05:49:29;;;;;;;0.90;0.90;;;;;;;;;;4981881;28;20115;-70
2023/10/22 05:51:54;;;;;;;2.45;0.77;;;;;;;;;;4981855;28;20642;-70
2023/10/22 05:54:20;;;;;;;1.10;1.00;;;;;;;;;;4982459;28;20038;-69
2023/10/22 05:56:45;;;;;;;1.05;0.90;;;;;;;;;;4982385;28;20073;-69
2023/10/22 05:59:11;;;;;;;0.95;0.95;;;;;;;;;;4978906;28;20054;-73
2023/10/22 06:01:41;;;;;;;1.10;1.00;;;;;;;;;;4975475;28;20054;-73
2023/10/22 06:04:10;;;;;;;1.20;1.10;;;;;;;;;;4981910;28;20773;-72
2023/10/22 06:06:36;;;;;;;1.92;1.00;;;;;;;;;;4981609;28;20143;-73
2023/10/22 06:09:02;;;;;;;1.13;1.02;;;;;;;;;;4995635;28;20590;-73
2023/10/22 06:11:28;;;;;;;0.80;0.80;;;;;;;;;;4979810;28;20443;-73
2023/10/22 06:13:54;;;;;;;1.52;1.00;;;;;;;;;;4980585;28;20827;-73
2023/10/22 06:16:19;;;;;;;1.40;1.30;;;;;;;;;;4981274;28;20617;-73
2023/10/22 06:18:46;;;;;;;2.58;1.13;;;;;;;;;;4979781;28;20046;-73
2023/10/22 06:21:12;;;;;;;1.77;1.10;;;;;;;;;;4980555;28;20133;-73
2023/10/22 06:23:37;;;;;;;1.50;1.10;;;;;;;;;;4996494;28;20077;-73
2023/10/22 06:26:04;;;;;;;1.60;0.90;;;;;;;;;;4981021;28;20135;-73
2023/10/22 06:28:30;;;;;;;2.65;1.08;;;;;;;;;;4982092;28;20046;-73
2023/10/22 06:31:09;;;;;;;1.00;0.70;;;;;;;;;;4980657;28;20072;-73
2023/10/22 06:33:36;;;;;;;0.98;0.90;;;;;;;;;;4964722;28;20046;-73
2023/10/22 06:36:19;;;;;;;1.15;1.08;;;;;;;;;;4979324;28;20054;-73
2023/10/22 06:38:48;;;;;;;0.80;0.80;;;;;;;;;;4974159;28;20797;-73
2023/10/22 06:41:15;;;;;;;4.30;0.95;;;;;;;;;;4994014;28;20050;-73
2023/10/22 06:43:41;;;;;;;1.23;0.88;;;;;;;;;;4977897;28;20097;-73
2023/10/22 06:46:07;;;;;;;0.90;0.90;;;;;;;;;;4979001;28;20042;-73
2023/10/22 06:48:32;;;;;;;0.68;0.68;;;;;;;;;;4976939;28;20046;-73
2023/10/22 06:50:57;;;;;;;1.25;0.80;;;;;;;;;;4975906;28;20500;-73
2023/10/22 06:53:23;;;;;;;0.90;0.88;;;;;;;;;;4976800;28;20062;-73
2023/10/22 06:55:48;;;;;;;3.13;1.08;;;;;;;;;;4993423;28;20529;-73
2023/10/22 06:58:14;;;;;;;1.10;0.80;;;;;;;;;;4978594;28;20046;-72
2023/10/22 07:00:39;;;;;;;0.90;0.90;;;;;;;;;;4977364;28;20391;-72
2023/10/22 07:03:04;;;;;;;1.17;1.00;;;;;;;;;;4979472;28;20038;-73
2023/10/22 07:05:30;;;;;;;1.15;0.98;;;;;;;;;;4978516;28;20099;-72
2023/10/22 07:07:55;;;;;;;1.00;0.85;;;;;;;;;;4979011;28;20038;-73
2023/10/22 07:10:21;;;;;;;2.10;1.08;;;;;;;;;;4978514;28;20054;-73
2023/10/22 07:12:46;;;;;;;1.88;1.15;;;;;;;;;;4977572;28;20054;-72
2023/10/22 07:15:12;;;;;;;0.98;0.95;;;;;;;;;;4976230;28;20046;-71
2023/10/22 07:17:40;;;;;;;1.00;0.93;;;;;;;;;;4978987;28;20065;-71
2023/10/22 07:20:06;;;;;;;1.25;1.15;;;;;;;;;;4979302;28;20046;-71
2023/10/22 07:22:32;;;;;;;1.45;1.10;;;;;;;;;;4977800;28;20424;-70
2023/10/22 07:24:57;;;;;;;2.55;1.00;;;;;;;;;;4977903;28;20097;-73
2023/10/22 07:27:23;;;;;;;1.55;1.15;;;;;;;;;;4978231;28;20452;-73
2023/10/22 07:29:48;;;;;;;1.20;1.10;;;;;;;;;;4978644;28;20121;-72
2023/10/22 07:32:14;;;;;;;2.38;1.30;;;;;;;;;;4978823;28;20157;-73
2023/10/22 07:34:39;;;;;;;2.58;1.60;;;;;;;;;;4978300;28;20046;-74
2023/10/22 07:37:05;;;;;;;1.30;1.20;;;;;;;;;;4977388;28;20592;-70
2023/10/22 07:39:31;;;;;;;1.50;1.40;;;;;;;;;;4977969;28;20112;-72
2023/10/22 07:41:57;;;;;;;1.70;1.60;;;;;;;;;;4975592;28;20525;-69
2023/10/22 07:44:22;;;;;;;2.03;1.45;;;;;;;;;;4979035;28;20046;-73
2023/10/22 07:46:48;;;;;;;1.50;1.38;;;;;;;;;;4978411;28;20065;-69
2023/10/22 07:49:13;;;;;;;3.88;1.40;;;;;;;;;;4977083;28;20967;-70
2023/10/22 07:51:39;;;;;;;1.85;1.10;;;;;;;;;;4977775;28;20046;-71
2023/10/22 07:54:04;;;;;;;1.38;1.27;;;;;;;;;;4975541;28;20091;-70
2023/10/22 07:56:30;;;;;;;1.30;1.20;;;;;;;;;;4977025;28;20066;-71
2023/10/22 07:58:55;;;;;;;1.27;1.17;;;;;;;;;;4976721;28;20317;-70
2023/10/22 08:01:23;;;;;;;1.73;1.27;;;;;;;;;;4976587;28;20046;-72
2023/10/22 08:03:50;;;;;;;2.67;1.10;;;;;;;;;;4977525;28;20042;-71
2023/10/22 08:06:15;;;;;;;9.80;1.38;;;;;;;;;;4978340;28;20046;-70
2023/10/22 08:08:41;;;;;;;2.83;1.00;;;;;;;;;;4977187;28;20045;-73
2023/10/22 08:11:06;;;;;;;3.40;0.93;;;;;;;;;;4975751;28;20046;-70
2023/10/22 08:13:32;;;;;;;2.90;0.93;;;;;;;;;;4978257;28;20050;-73
2023/10/22 08:16:03;;;;;;;1.00;0.88;;;;;;;;;;4962142;28;20049;-71
2023/10/22 08:18:28;;;;;;;1.23;0.80;;;;;;;;;;4977723;28;20049;-71
2023/10/22 08:20:53;;;;;;;3.30;1.10;;;;;;;;;;4977339;28;20403;-79
2023/10/22 08:23:19;;;;;;;2.03;0.93;;;;;;;;;;4977089;28;20241;-72
2023/10/22 08:25:51;;;;;;;4.35;1.00;;;;;;;;;;4977310;28;20053;-70
2023/10/22 08:28:17;;;;;;;2.45;1.10;;;;;;;;;;4977712;28;20510;-72
2023/10/22 08:30:46;;;;;;;0.70;0.68;;;;;;;;;;4977428;28;20590;-70
2023/10/22 08:33:12;;;;;;;1.65;0.93;;;;;;;;;;4976559;28;20045;-72
2023/10/22 08:35:38;;;;;;;0.90;0.88;;;;;;;;;;4991424;28;20435;-71
2023/10/22 08:38:03;;;;;;;2.78;0.82;;;;;;;;;;4976392;28;20048;-72
2023/10/22 08:40:29;;;;;;;0.93;0.82;;;;;;;;;;4978061;28;20050;-72
2023/10/22 08:42:58;;;;;;;0.98;0.90;;;;;;;;;;4978655;28;20042;-75
2023/10/22 08:45:23;;;;;;;1.10;0.95;;;;;;;;;;4978262;28;20112;-71
2023/10/22 08:47:48;;;;;;;1.38;0.95;;;;;;;;;;4978818;28;20054;-79
2023/10/22 08:50:16;;;;;;;1.35;0.90;;;;;;;;;;4975329;28;20054;-72
2023/10/22 08:52:41;;;;;;;0.68;0.50;;;;;;;;;;4968110;28;20132;-75
2023/10/22 08:55:07;;;;;;;2.55;1.10;;;;;;;;;;4978329;28;20165;-75
2023/10/22 08:57:34;;;;;;;1.83;0.70;;;;;;;;;;4979532;28;20051;-74
2023/10/22 09:00:00;;;;;;;1.70;1.00;;;;;;;;;;4980045;28;20835;-75
2023/10/22 09:02:29;;;;;;;2.85;0.70;;;;;;;;;;4980550;28;20050;-75
2023/10/22 09:04:55;;;;;;;0.90;0.90;;;;;;;;;;4978809;28;20042;-73
2023/10/22 09:07:54;;;;;;;0.73;0.70;;;;;;;;;;4976824;28;20850;-74
2023/10/22 09:10:23;;;;;;;1.65;0.93;;;;;;;;;;4974000;28;20053;-71
2023/10/22 09:12:49;;;;;;;0.65;0.65;;;;;;;;;;4974153;28;20142;-70
2023/10/22 09:15:14;;;;;;;0.73;0.60;;;;;;;;;;4972032;28;20054;-71
2023/10/22 09:17:42;;;;;;;0.57;0.57;;;;;;;;;;4973589;28;20046;-73
2023/10/22 09:20:21;;;;;;;1.63;0.60;;;;;;;;;;4975330;28;20500;-70
2023/10/22 09:22:47;;;;;;;1.30;0.82;;;;;;;;;;4974510;28;20057;-71
2023/10/22 09:25:14;;;;;;;1.48;0.45;;;;;;;;;;4970267;28;20042;-72
2023/10/22 09:27:40;;;;;;;0.70;0.70;;;;;;;;;;4973451;28;20046;-72
2023/10/22 09:30:06;;;;;;;1.15;0.40;;;;;;;;;;4973154;28;20059;-71
2023/10/22 09:32:32;;;;;;;0.43;0.40;;;;;;;;;;4972075;28;20050;-73
2023/10/22 09:35:15;;;;;;;1.08;0.35;;;;;;;;;;4973486;28;20054;-73
2023/10/22 09:37:51;;;;;;;0.82;0.47;;;;;;;;;;4972676;28;20750;-71
2023/10/22 09:40:20;;;;;;;0.80;0.40;;;;;;;;;;4971899;28;20046;-74
2023/10/22 09:42:48;;;;;;;1.13;0.70;;;;;;;;;;4971587;28;20081;-75
2023/10/22 09:45:14;;;;;;;1.23;0.40;;;;;;;;;;4972923;28;20030;-71
2023/10/22 09:47:40;;;;;;;0.55;0.30;;;;;;;;;;4973290;28;20046;-73
2023/10/22 09:50:08;;;;;;;0.35;0.35;;;;;;;;;;4970495;28;20174;-72
2023/10/22 09:52:38;;;;;;;0.75;0.43;;;;;;;;;;4971740;28;20050;-71
2023/10/22 09:55:06;;;;;;;0.40;0.40;;;;;;;;;;4970588;28;20096;-73
2023/10/22 09:57:33;;;;;;;0.90;0.40;;;;;;;;;;4970016;28;20048;-71
2023/10/22 10:00:04;;;;;;;1.02;0.40;;;;;;;;;;4970411;28;20125;-72
2023/10/22 10:02:33;;;;;;;0.50;0.50;;;;;;;;;;4973660;28;20050;-72
2023/10/22 10:04:58;;;;;;;3.22;0.50;;;;;;;;;;4972966;28;20686;-72
2023/10/22 10:07:25;;;;;;;0.55;0.50;;;;;;;;;;4973464;28;20065;-72
2023/10/22 10:09:52;;;;;;;0.60;0.60;;;;;;;;;;4973205;28;20082;-72
2023/10/22 10:12:17;;;;;;;2.83;0.60;;;;;;;;;;4972800;28;20049;-71
2023/10/22 10:14:48;;;;;;;2.22;0.50;;;;;;;;;;4971905;28;20111;-72
2023/10/22 10:17:17;;;;;;;0.70;0.50;;;;;;;;;;4971962;28;20522;-72
2023/10/22 10:19:43;;;;;;;0.57;0.50;;;;;;;;;;4973469;28;20050;-71
2023/10/22 10:22:09;;;;;;;1.35;0.60;;;;;;;;;;4972637;28;20081;-71
2023/10/22 10:24:35;;;;;;;0.68;0.35;;;;;;;;;;4975086;28;20077;-71
2023/10/22 10:27:00;;;;;;;2.45;0.47;;;;;;;;;;4975751;28;20050;-71
2023/10/22 10:29:28;;;;;;;1.00;0.70;;;;;;;;;;4977580;28;20061;-72
2023/10/22 10:31:55;;;;;;;0.80;0.50;;;;;;;;;;4976545;28;20057;-72
2023/10/22 10:34:32;;;;;;;1.13;0.55;;;;;;;;;;4976657;28;20144;-72
2023/10/22 10:37:09;;;;;;;1.13;0.47;;;;;;;;;;4976161;28;20050;-76
2023/10/22 10:39:47;;;;;;;1.73;0.40;;;;;;;;;;4975601;28;20042;-72
2023/10/22 10:42:29;;;;;;;1.52;0.28;;;;;;;;;;4972914;28;20038;-72
2023/10/22 10:44:54;;;;;;;0.40;0.40;;;;;;;;;;4973013;28;20772;-72
2023/10/22 10:47:20;;;;;;;3.15;0.45;;;;;;;;;;4973362;28;20062;-71
2023/10/22 10:50:06;;;;;;;0.55;0.40;;;;;;;;;;4974098;28;20038;-71
2023/10/22 10:52:34;;;;;;;0.40;0.40;;;;;;;;;;4972260;28;20050;-71
2023/10/22 10:55:15;;;;;;;3.40;1.05;;;;;;;;;;4972876;28;20165;-72
2023/10/22 10:57:46;;;;;;;1.40;0.50;;;;;;;;;;4975060;28;20054;-72
2023/10/22 11:00:21;;;;;;;1.70;0.50;;;;;;;;;;4973508;28;20056;-72
2023/10/22 11:02:51;;;;;;;0.30;0.30;;;;;;;;;;4975601;28;20581;-70
2023/10/22 11:05:29;;;;;;;1.10;0.50;;;;;;;;;;4989698;28;20125;-70
2023/10/22 11:07:55;;;;;;;1.10;0.30;;;;;;;;;;4975830;28;20827;-70
2023/10/22 11:10:21;;;;;;;2.90;0.50;;;;;;;;;;4977416;28;20046;-70
2023/10/22 11:12:46;;;;;;;1.55;0.50;;;;;;;;;;4977330;28;20156;-69
2023/10/22 11:15:13;;;;;;;0.82;0.38;;;;;;;;;;4975109;28;20054;-71
2023/10/22 11:17:44;;;;;;;0.68;0.40;;;;;;;;;;4974739;28;20759;-70
2023/10/22 11:20:10;;;;;;;0.82;0.50;;;;;;;;;;4975358;28;20090;-70
2023/10/22 11:22:36;;;;;;;0.40;0.40;;;;;;;;;;4975442;28;20527;-71
2023/10/22 11:25:05;;;;;;;0.50;0.45;;;;;;;;;;4973408;28;20054;-73
2023/10/22 11:27:32;;;;;;;1.48;0.70;;;;;;;;;;4975416;28;20054;-72
2023/10/22 11:29:57;;;;;;;1.08;0.40;;;;;;;;;;4974988;28;20041;-72
2023/10/22 11:32:23;;;;;;;1.13;0.60;;;;;;;;;;4975348;28;20050;-72
2023/10/22 11:34:58;;;;;;;0.70;0.50;;;;;;;;;;4975145;28;20065;-71
2023/10/22 11:37:42;;;;;;;0.95;0.68;;;;;;;;;;4974335;28;20443;-72
2023/10/22 11:40:28;;;;;;;1.23;0.57;;;;;;;;;;4974307;28;20050;-71
2023/10/22 11:43:00;;;;;;;1.05;0.47;;;;;;;;;;4968891;28;20038;-72
2023/10/22 11:45:34;;;;;;;;;;;;;;;;;;4987561;28;20069;-71
2023/10/22 11:48:11;;;;;;;1.10;0.77;;;;;;;;;;4976510;28;19970;-73
2023/10/22 11:50:37;;;;;;;1.13;0.30;;;;;;;;;;4975225;28;20599;-72
2023/10/22 11:53:02;;;;;;;0.55;0.30;;;;;;;;;;4976075;28;20132;-71
2023/10/22 11:55:27;;;;;;;1.52;0.70;;;;;;;;;;4977211;28;20039;-71
2023/10/22 11:57:53;;;;;;;3.25;1.40;;;;;;;;;;4977414;28;20856;-71
2023/10/22 12:00:18;;;;;;;7.20;3.92;;;;;;;;;;4976257;28;20042;-71
2023/10/22 12:02:44;;;;;;;0.60;0.45;;;;;;;;;;4977617;28;20050;-71
2023/10/22 12:05:11;;;;;;;0.40;0.38;;;;;;;;;;4976853;28;20184;-70
2023/10/22 12:07:36;;;;;;;1.23;0.60;;;;;;;;;;4975576;28;20058;-72
2023/10/22 12:10:04;;;;;;;0.30;0.30;;;;;;;;;;4977232;28;20189;-72
2023/10/22 12:12:29;;;;;;;0.20;0.20;;;;;;;;;;4971877;28;20042;-71
2023/10/22 12:14:56;;;;;;;0.50;0.22;;;;;;;;;;4977114;28;20479;-71
2023/10/22 12:17:24;;;;;;;0.40;0.40;;;;;;;;;;4978041;28;20062;-73
2023/10/22 12:19:50;;;;;;;0.32;0.30;;;;;;;;;;4995721;28;20478;-72
2023/10/22 12:22:16;;;;;;;2.40;0.20;;;;;;;;;;4979093;28;20161;-71
2023/10/22 12:24:42;;;;;;;0.63;0.38;;;;;;;;;;4982000;28;20050;-72
2023/10/22 12:27:08;;;;;;;0.20;0.20;;;;;;;;;;4979129;28;20729;-71
2023/10/22 12:29:33;;;;;;;0.20;0.20;;;;;;;;;;4981339;28;20042;-71
2023/10/22 12:31:59;;;;;;;0.80;0.30;;;;;;;;;;4979204;28;20518;-72
2023/10/22 12:34:26;;;;;;;1.95;0.10;;;;;;;;;;4979946;28;20845;-71
2023/10/22 12:36:52;;;;;;;0.30;0.30;;;;;;;;;;4979691;28;20080;-71
2023/10/22 12:39:17;;;;;;;0.30;0.30;;;;;;;;;;4979180;28;20728;-72
2023/10/22 12:41:45;;;;;;;0.77;0.38;;;;;;;;;;4981206;28;20050;-70
2023/10/22 12:44:10;;;;;;;0.20;0.20;;;;;;;;;;4979138;28;20049;-71
2023/10/22 12:46:36;;;;;;;0.30;0.30;;;;;;;;;;4980322;28;20047;-73
2023/10/22 12:49:01;;;;;;;0.43;0.38;;;;;;;;;;4980479;28;20038;-70
2023/10/22 12:51:27;;;;;;;0.95;0.30;;;;;;;;;;4978763;28;20415;-71
2023/10/22 12:53:52;;;;;;;0.55;0.50;;;;;;;;;;4980699;28;20137;-70
2023/10/22 12:56:18;;;;;;;0.85;0.43;;;;;;;;;;4979546;28;20038;-70
2023/10/22 12:58:46;;;;;;;1.00;0.90;;;;;;;;;;4980061;28;20050;-71
2023/10/22 13:01:12;;;;;;;0.30;0.30;;;;;;;;;;4978274;28;20050;-71
2023/10/22 13:03:37;;;;;;;0.47;0.47;;;;;;;;;;4978594;28;20065;-71
2023/10/22 13:06:06;;;;;;;1.38;0.50;;;;;;;;;;4978788;28;20106;-70
2023/10/22 13:08:32;;;;;;;0.77;0.32;;;;;;;;;;4978701;28;20566;-72
2023/10/22 13:10:59;;;;;;;0.17;0.17;;;;;;;;;;4979251;28;20488;-72
2023/10/22 13:13:25;;;;;;;0.73;0.40;;;;;;;;;;4978739;28;20113;-71
2023/10/22 13:15:50;;;;;;;0.30;0.30;;;;;;;;;;4979723;28;20089;-72
2023/10/22 13:18:16;;;;;;;2.00;0.32;;;;;;;;;;4977775;28;20077;-73
2023/10/22 13:20:42;;;;;;;0.50;0.50;;;;;;;;;;4978453;28;20061;-75
2023/10/22 13:23:07;;;;;;;1.95;0.60;;;;;;;;;;4976831;28;20061;-73
2023/10/22 13:25:34;;;;;;;0.75;0.43;;;;;;;;;;4977012;28;20045;-73
2023/10/22 13:27:59;;;;;;;0.70;0.47;;;;;;;;;;4976834;28;20128;-72
2023/10/22 13:30:26;;;;;;;0.40;0.40;;;;;;;;;;4976488;28;20043;-74
2023/10/22 13:32:51;;;;;;;0.70;0.28;;;;;;;;;;4978627;28;20058;-75
2023/10/22 13:35:17;;;;;;;1.48;0.75;;;;;;;;;;4962681;28;20112;-73
2023/10/22 13:37:42;;;;;;;1.20;0.43;;;;;;;;;;4993382;28;20431;-74
2023/10/22 13:40:08;;;;;;;0.57;0.50;;;;;;;;;;4976250;28;21040;-73
2023/10/22 13:42:33;;;;;;;1.13;0.40;;;;;;;;;;4977089;28;20054;-73
2023/10/22 13:44:59;;;;;;;0.88;0.50;;;;;;;;;;4976321;28;20056;-76
2023/10/22 13:47:24;;;;;;;0.65;0.50;;;;;;;;;;4991977;28;20656;-75
2023/10/22 13:49:50;;;;;;;0.73;0.52;;;;;;;;;;4976012;28;20062;-74
2023/10/22 13:52:15;;;;;;;0.30;0.30;;;;;;;;;;4976482;28;20124;-74
2023/10/22 13:54:41;;;;;;;1.23;0.45;;;;;;;;;;4983741;28;20046;-72
2023/10/22 13:57:06;;;;;;;0.80;0.43;;;;;;;;;;4975616;28;20272;-71
2023/10/22 13:59:32;;;;;;;2.15;0.50;;;;;;;;;;4979610;28;20503;-74
2023/10/22 14:01:57;;;;;;;0.82;0.30;;;;;;;;;;4980238;28;20412;-75
2023/10/22 14:04:23;;;;;;;0.88;0.40;;;;;;;;;;4980734;28;20657;-74
2023/10/22 14:06:49;;;;;;;0.65;0.60;;;;;;;;;;4977792;28;20045;-73
2023/10/22 14:09:16;;;;;;;1.17;0.40;;;;;;;;;;4995819;28;20046;-74
2023/10/22 14:11:41;;;;;;;0.50;0.50;;;;;;;;;;4977375;28;20145;-72
2023/10/22 14:14:07;;;;;;;0.82;0.57;;;;;;;;;;4973647;28;20108;-73
2023/10/22 14:16:33;;;;;;;0.90;0.60;;;;;;;;;;4975933;28;20396;-73
2023/10/22 14:18:59;;;;;;;0.50;0.50;;;;;;;;;;4974051;28;20073;-72
2023/10/22 14:21:24;;;;;;;0.45;0.40;;;;;;;;;;4975394;28;20790;-74
2023/10/22 14:23:50;;;;;;;1.02;0.50;;;;;;;;;;4975379;28;20274;-73
2023/10/22 14:26:15;;;;;;;1.35;0.70;;;;;;;;;;4975907;28;20041;-71
2023/10/22 14:28:41;;;;;;;1.67;0.70;;;;;;;;;;4975785;28;20412;-74
2023/10/22 14:31:07;;;;;;;0.63;0.38;;;;;;;;;;4974670;28;20112;-72
2023/10/22 14:33:33;;;;;;;1.98;0.30;;;;;;;;;;4975893;28;20100;-73
2023/10/22 14:36:03;;;;;;;1.45;0.50;;;;;;;;;;4975689;28;20082;-72
2023/10/22 14:38:29;;;;;;;1.50;0.50;;;;;;;;;;4976685;28;20507;-71
2023/10/22 14:40:55;;;;;;;0.98;0.40;;;;;;;;;;4980370;28;20042;-72